Time;durP1;ratioP1;P1;durP2;ratioP2;P2;SDS_P1;SDS_P2;PMS_P1;PMS_P2;Temp;Humidity;BMP_temperature;BMP_pressure;BME280_temperature;BME280_humidity;BME280_pressure;Samples;Min_cycle;Max_cycle;Signal;HPM_P1;HPM_P2
2021/11/13 00:01:35;;;;;;;39.38;23.35;;;8.70;99.90;;;;;;5115826;28;20044;-69
2021/11/13 00:04:00;;;;;;;34.50;21.42;;;8.70;99.90;;;;;;5115456;28;20043;-69
2021/11/13 00:06:26;;;;;;;34.08;22.48;;;8.80;99.90;;;;;;5115486;28;20472;-69
2021/11/13 00:08:52;;;;;;;40.38;23.02;;;8.70;99.90;;;;;;5115167;28;20039;-69
2021/11/13 00:11:18;;;;;;;31.20;21.13;;;8.80;99.90;;;;;;5115493;28;20486;-69
2021/11/13 00:13:46;;;;;;;33.75;23.23;;;8.80;99.90;;;;;;5115529;28;20031;-69
2021/11/13 00:16:12;;;;;;;36.30;23.00;;;8.80;99.90;;;;;;5114334;28;20135;-69
2021/11/13 00:18:38;;;;;;;33.88;21.60;;;8.70;99.90;;;;;;5115057;28;20527;-69
2021/11/13 00:21:05;;;;;;;33.60;22.67;;;8.80;99.90;;;;;;5114893;27;20044;-69
2021/11/13 00:23:31;;;;;;;40.10;23.05;;;8.70;99.90;;;;;;5113560;28;20385;-69
2021/11/13 00:25:58;;;;;;;34.20;22.95;;;8.80;99.90;;;;;;5115042;28;20032;-69
2021/11/13 00:28:24;;;;;;;34.28;22.30;;;8.80;99.90;;;;;;5115007;28;20083;-70
2021/11/13 00:30:50;;;;;;;35.78;22.75;;;8.80;99.90;;;;;;5114649;28;20074;-69
2021/11/13 00:33:16;;;;;;;35.33;22.70;;;8.80;99.90;;;;;;5113535;28;20456;-69
2021/11/13 00:35:41;;;;;;;33.88;22.13;;;8.80;99.90;;;;;;5113558;28;20040;-69
2021/11/13 00:38:07;;;;;;;37.95;24.60;;;8.80;99.90;;;;;;5113800;28;20054;-69
2021/11/13 00:40:33;;;;;;;37.63;23.42;;;8.80;99.90;;;;;;5113026;28;20047;-69
2021/11/13 00:42:59;;;;;;;35.83;23.42;;;8.80;99.90;;;;;;5114485;27;20395;-69
2021/11/13 00:45:24;;;;;;;36.92;23.10;;;8.80;99.90;;;;;;5113878;28;20050;-69
2021/11/13 00:47:50;;;;;;;41.05;24.05;;;8.80;99.90;;;;;;5113368;28;20399;-69
2021/11/13 00:50:16;;;;;;;34.58;22.08;;;8.70;99.90;;;;;;5114252;28;20074;-69
2021/11/13 00:52:42;;;;;;;39.00;24.83;;;8.80;99.90;;;;;;5113618;28;20429;-69
2021/11/13 00:55:11;;;;;;;33.70;22.90;;;8.80;99.90;;;;;;5113414;28;20428;-69
2021/11/13 00:57:37;;;;;;;39.60;24.30;;;8.70;99.90;;;;;;5114588;28;20082;-69
2021/11/13 01:00:08;;;;;;;36.33;22.98;;;8.70;99.90;;;;;;5113726;28;20505;-69
2021/11/13 01:02:34;;;;;;;35.63;23.15;;;8.80;99.90;;;;;;5113316;28;20088;-69
2021/11/13 01:04:59;;;;;;;35.47;23.15;;;8.70;99.90;;;;;;5114406;28;20114;-69
2021/11/13 01:07:25;;;;;;;44.92;25.58;;;8.80;99.90;;;;;;5113097;28;20050;-69
2021/11/13 01:09:52;;;;;;;41.78;26.30;;;8.80;99.90;;;;;;5112865;28;20039;-69
2021/11/13 01:12:17;;;;;;;38.17;23.92;;;8.80;99.90;;;;;;5113064;28;20044;-69
2021/11/13 01:14:43;;;;;;;39.22;25.33;;;8.80;99.90;;;;;;5114376;28;20084;-69
2021/11/13 01:17:11;;;;;;;38.97;25.10;;;8.80;99.90;;;;;;5112908;28;20391;-69
2021/11/13 01:19:39;;;;;;;37.25;23.58;;;8.70;99.90;;;;;;5112363;28;20398;-69
2021/11/13 01:22:05;;;;;;;41.42;26.15;;;8.80;99.90;;;;;;5112999;28;20044;-69
2021/11/13 01:24:30;;;;;;;41.30;25.10;;;8.70;99.90;;;;;;5112620;28;20498;-69
2021/11/13 01:26:56;;;;;;;37.50;24.20;;;8.70;99.90;;;;;;5112419;28;20039;-69
2021/11/13 01:29:22;;;;;;;39.40;26.35;;;8.70;99.90;;;;;;5113289;28;20399;-69
2021/11/13 01:31:47;;;;;;;37.72;25.75;;;8.70;99.90;;;;;;5113518;28;20054;-69
2021/11/13 01:34:13;;;;;;;40.05;24.58;;;8.70;99.90;;;;;;5114180;28;20039;-69
2021/11/13 01:36:39;;;;;;;38.88;25.65;;;8.70;99.90;;;;;;5114175;28;20063;-69
2021/11/13 01:39:04;;;;;;;38.38;25.02;;;8.70;99.90;;;;;;5113553;28;20058;-69
2021/11/13 01:41:31;;;;;;;41.33;25.17;;;8.80;99.90;;;;;;5113744;28;20040;-69
2021/11/13 01:43:58;;;;;;;38.30;23.83;;;8.70;99.90;;;;;;5113902;28;20081;-69
2021/11/13 01:46:23;;;;;;;40.00;26.45;;;8.80;99.90;;;;;;5113941;28;20416;-69
2021/11/13 01:48:49;;;;;;;38.33;25.42;;;8.70;99.90;;;;;;5113418;28;20127;-69
2021/11/13 01:51:16;;;;;;;39.20;25.45;;;8.70;99.90;;;;;;5113839;28;20054;-70
2021/11/13 01:53:44;;;;;;;39.35;25.38;;;8.70;99.90;;;;;;5113902;28;20048;-70
2021/11/13 01:56:16;;;;;;;40.75;25.08;;;8.70;99.90;;;;;;5112623;28;20087;-70
2021/11/13 01:58:42;;;;;;;36.28;25.77;;;8.70;99.90;;;;;;5113156;28;20089;-70
2021/11/13 02:01:07;;;;;;;43.50;26.55;;;8.70;99.90;;;;;;5113667;28;20043;-70
2021/11/13 02:03:33;;;;;;;37.03;25.13;;;8.70;99.90;;;;;;5112723;28;20036;-69
2021/11/13 02:05:59;;;;;;;41.40;26.08;;;8.70;99.90;;;;;;5113869;28;20031;-69
2021/11/13 02:08:24;;;;;;;40.72;24.88;;;8.70;99.90;;;;;;5114012;28;20031;-70
2021/11/13 02:10:50;;;;;;;44.45;25.90;;;8.70;99.90;;;;;;5113763;28;20369;-70
2021/11/13 02:13:16;;;;;;;38.60;25.25;;;8.70;99.90;;;;;;5113465;28;20039;-70
2021/11/13 02:15:41;;;;;;;37.60;25.10;;;8.70;99.90;;;;;;5112113;28;20098;-71
2021/11/13 02:18:07;;;;;;;34.17;23.13;;;8.70;99.90;;;;;;5111955;28;20400;-71
2021/11/13 02:20:38;;;;;;;43.10;25.70;;;8.80;99.90;;;;;;5111904;28;20040;-70
2021/11/13 02:23:14;;;;;;;32.25;23.55;;;8.70;99.90;;;;;;5112130;28;20062;-69
2021/11/13 02:25:40;;;;;;;37.25;23.75;;;8.70;99.90;;;;;;5113406;28;20044;-69
2021/11/13 02:28:08;;;;;;;31.45;22.67;;;8.70;99.90;;;;;;5113413;28;20394;-70
2021/11/13 02:30:34;;;;;;;38.92;25.02;;;8.80;99.90;;;;;;5112019;28;20376;-71
2021/11/13 02:33:00;;;;;;;33.67;23.50;;;8.80;99.90;;;;;;5113453;28;20391;-71
2021/11/13 02:35:31;;;;;;;33.22;23.73;;;8.80;99.90;;;;;;5113291;28;20040;-71
2021/11/13 02:37:57;;;;;;;32.67;22.60;;;8.80;99.90;;;;;;5113972;28;20044;-70
2021/11/13 02:40:23;;;;;;;31.85;21.13;;;8.90;99.90;;;;;;5114850;28;20035;-71
2021/11/13 02:42:50;;;;;;;35.28;22.55;;;8.90;99.90;;;;;;5117169;28;20043;-71
2021/11/13 02:45:17;;;;;;;33.72;22.42;;;8.90;99.90;;;;;;5115683;28;20047;-71
2021/11/13 02:47:48;;;;;;;30.15;21.70;;;8.80;99.90;;;;;;5117061;28;20036;-71
2021/11/13 02:50:17;;;;;;;31.30;21.73;;;8.80;99.90;;;;;;5115737;28;20530;-71
2021/11/13 02:52:49;;;;;;;33.03;22.13;;;8.80;99.90;;;;;;5116770;28;20122;-71
2021/11/13 02:55:15;;;;;;;29.48;21.15;;;8.90;99.90;;;;;;5117030;28;20042;-68
2021/11/13 02:57:42;;;;;;;29.70;19.80;;;8.80;99.90;;;;;;5115360;28;20554;-70
2021/11/13 03:00:12;;;;;;;26.92;20.20;;;8.90;99.90;;;;;;5116293;28;20568;-71
2021/11/13 03:02:38;;;;;;;31.30;21.88;;;8.90;99.90;;;;;;5115554;28;20063;-71
2021/11/13 03:05:17;;;;;;;26.58;18.23;;;8.90;99.90;;;;;;5116117;28;20039;-71
2021/11/13 03:07:44;;;;;;;26.08;18.98;;;8.90;99.90;;;;;;5115544;28;20043;-71
2021/11/13 03:10:12;;;;;;;28.52;20.50;;;8.90;99.90;;;;;;5116162;28;20383;-71
2021/11/13 03:12:38;;;;;;;28.48;20.08;;;8.90;99.90;;;;;;5115419;28;20379;-71
2021/11/13 03:15:14;;;;;;;26.33;17.80;;;8.90;99.90;;;;;;5116817;28;20043;-71
2021/11/13 03:17:39;;;;;;;25.52;17.75;;;8.90;99.90;;;;;;5115464;28;20050;-71
2021/11/13 03:20:06;;;;;;;26.45;19.05;;;8.90;99.90;;;;;;5114721;28;20052;-71
2021/11/13 03:22:34;;;;;;;24.08;18.00;;;9.00;99.90;;;;;;5114912;28;20040;-71
2021/11/13 03:24:59;;;;;;;26.88;17.98;;;9.00;99.90;;;;;;5114903;28;20039;-71
2021/11/13 03:27:25;;;;;;;22.88;16.90;;;9.00;99.90;;;;;;5116517;28;20047;-71
2021/11/13 03:29:53;;;;;;;23.00;16.45;;;9.00;99.90;;;;;;5114714;28;20104;-71
2021/11/13 03:32:19;;;;;;;22.65;16.15;;;9.00;99.90;;;;;;5116079;28;20044;-71
2021/11/13 03:34:44;;;;;;;23.05;16.83;;;9.00;99.90;;;;;;5116170;28;20097;-71
2021/11/13 03:37:10;;;;;;;21.30;15.32;;;9.00;99.90;;;;;;5116217;28;20046;-71
2021/11/13 03:39:35;;;;;;;20.77;15.25;;;9.00;99.90;;;;;;5115489;28;20071;-71
2021/11/13 03:42:01;;;;;;;21.70;16.55;;;9.00;99.90;;;;;;5097482;28;20403;-71
2021/11/13 03:44:27;;;;;;;20.35;15.23;;;9.10;99.90;;;;;;5114496;28;20051;-71
2021/11/13 03:46:52;;;;;;;20.30;15.40;;;9.10;99.90;;;;;;5115771;28;20115;-71
2021/11/13 03:49:18;;;;;;;24.45;18.02;;;9.10;99.90;;;;;;5115816;28;20376;-71
2021/11/13 03:51:43;;;;;;;22.63;17.40;;;9.10;99.90;;;;;;5115215;28;20043;-71
2021/11/13 03:54:09;;;;;;;23.65;17.05;;;9.10;99.90;;;;;;5115683;28;20096;-71
2021/11/13 03:56:35;;;;;;;22.92;16.50;;;9.10;99.90;;;;;;5115774;28;20198;-71
2021/11/13 03:59:04;;;;;;;22.60;15.50;;;9.10;99.90;;;;;;5114153;28;20043;-71
2021/11/13 04:01:31;;;;;;;22.73;16.08;;;9.10;99.90;;;;;;5114216;28;20124;-69
2021/11/13 04:03:56;;;;;;;25.13;17.27;;;9.20;99.90;;;;;;5113996;28;20044;-69
2021/11/13 04:06:22;;;;;;;24.60;16.98;;;9.10;99.90;;;;;;5115254;28;20039;-69
2021/11/13 04:08:47;;;;;;;24.70;18.30;;;9.20;99.90;;;;;;5115293;28;20563;-69
2021/11/13 04:11:13;;;;;;;21.10;16.13;;;9.10;99.90;;;;;;5115686;28;20083;-69
2021/11/13 04:13:39;;;;;;;24.15;17.90;;;9.20;99.90;;;;;;5113959;28;20114;-69
2021/11/13 04:16:04;;;;;;;25.48;18.50;;;9.20;99.90;;;;;;5113822;28;20076;-69
2021/11/13 04:18:30;;;;;;;22.27;17.30;;;9.20;99.90;;;;;;5114658;28;20039;-69
2021/11/13 04:20:56;;;;;;;26.98;19.88;;;9.20;99.90;;;;;;5113965;28;20557;-69
2021/11/13 04:23:21;;;;;;;35.22;23.20;;;9.20;99.90;;;;;;5115161;28;20040;-69
2021/11/13 04:25:47;;;;;;;26.05;18.88;;;9.20;99.90;;;;;;5114320;28;20054;-69
2021/11/13 04:28:13;;;;;;;28.42;19.73;;;9.20;99.90;;;;;;5113695;28;20475;-69
2021/11/13 04:30:38;;;;;;;30.35;20.55;;;9.20;99.90;;;;;;5113443;28;20035;-69
2021/11/13 04:33:04;;;;;;;24.88;19.02;;;9.20;99.90;;;;;;5115023;28;20036;-69
2021/11/13 04:37:57;;;;;;;29.25;22.08;;;9.30;99.90;;;;;;5113337;28;20189;-69
2021/11/13 04:40:27;;;;;;;22.05;17.85;;;9.30;99.90;;;;;;5114459;28;20449;-69
2021/11/13 04:42:53;;;;;;;31.48;21.48;;;9.30;99.90;;;;;;5114493;28;20047;-69
2021/11/13 04:45:19;;;;;;;26.52;19.23;;;9.30;99.90;;;;;;5114540;28;20115;-69
2021/11/13 04:47:45;;;;;;;27.80;20.35;;;9.30;99.90;;;;;;5113243;28;20507;-69
2021/11/13 04:50:16;;;;;;;26.92;19.98;;;9.30;99.90;;;;;;5114119;28;20039;-69
2021/11/13 04:52:42;;;;;;;34.60;23.67;;;9.30;99.90;;;;;;5113204;28;20048;-70
2021/11/13 04:55:09;;;;;;;27.17;19.05;;;9.40;99.90;;;;;;5114365;28;20036;-71
2021/11/13 04:57:34;;;;;;;32.45;20.88;;;9.40;99.90;;;;;;5113562;28;20365;-71
2021/11/13 05:00:00;;;;;;;30.75;21.88;;;9.40;99.90;;;;;;5114096;28;20035;-71
2021/11/13 05:02:26;;;;;;;26.33;19.38;;;9.30;99.90;;;;;;5095327;28;20495;-70
2021/11/13 05:04:54;;;;;;;28.83;21.90;;;9.40;99.90;;;;;;5114258;28;20039;-71
2021/11/13 05:07:23;;;;;;;30.35;19.88;;;9.40;99.90;;;;;;5114175;28;20043;-71
2021/11/13 05:09:51;;;;;;;25.90;20.35;;;9.40;99.90;;;;;;5112729;28;20040;-69
2021/11/13 05:12:17;;;;;;;29.42;19.80;;;9.40;99.90;;;;;;5113452;28;20088;-69
2021/11/13 05:14:42;;;;;;;28.10;20.60;;;9.40;99.90;;;;;;5113252;28;20119;-69
2021/11/13 05:17:08;;;;;;;26.27;19.83;;;9.40;99.90;;;;;;5114345;28;20165;-70
2021/11/13 05:19:34;;;;;;;30.40;22.60;;;9.40;99.90;;;;;;5113827;28;20535;-69
2021/11/13 05:22:00;;;;;;;31.50;21.50;;;9.50;99.90;;;;;;5114106;28;20075;-69
2021/11/13 05:24:25;;;;;;;35.42;23.90;;;9.40;99.90;;;;;;5112864;28;20058;-69
2021/11/13 05:26:51;;;;;;;28.40;20.85;;;9.40;99.90;;;;;;5113964;28;20042;-69
2021/11/13 05:29:17;;;;;;;38.40;25.38;;;9.40;99.90;;;;;;5112769;28;20039;-69
2021/11/13 05:31:42;;;;;;;40.53;26.58;;;9.40;99.90;;;;;;5113733;28;20116;-69
2021/11/13 05:34:08;;;;;;;37.92;24.40;;;9.40;99.90;;;;;;5113940;28;20045;-69
2021/11/13 05:36:33;;;;;;;39.28;25.25;;;9.50;99.90;;;;;;5112628;28;20616;-69
2021/11/13 05:38:59;;;;;;;35.60;24.70;;;9.40;99.90;;;;;;5113518;28;20122;-71
2021/11/13 05:41:25;;;;;;;54.25;30.00;;;9.40;99.90;;;;;;5112394;28;20377;-71
2021/11/13 05:43:50;;;;;;;40.53;25.65;;;9.40;99.90;;;;;;5113549;28;20039;-71
2021/11/13 05:46:16;;;;;;;43.90;28.27;;;9.40;99.90;;;;;;5112726;28;20047;-71
2021/11/13 05:48:42;;;;;;;45.40;28.65;;;9.40;99.90;;;;;;5113474;28;20031;-71
2021/11/13 05:51:08;;;;;;;47.55;29.17;;;9.50;99.90;;;;;;5114177;28;20372;-71
2021/11/13 05:53:33;;;;;;;44.03;28.05;;;9.50;99.90;;;;;;5112476;28;20070;-71
2021/11/13 05:55:59;;;;;;;44.50;29.20;;;9.50;99.90;;;;;;5112459;28;20048;-71
2021/11/13 05:58:25;;;;;;;36.15;25.38;;;9.50;99.90;;;;;;5112775;28;20163;-71
2021/11/13 06:00:51;;;;;;;43.10;27.60;;;9.50;99.90;;;;;;5113363;28;20039;-71
2021/11/13 06:03:16;;;;;;;36.40;25.23;;;9.50;99.90;;;;;;5112527;28;20050;-71
2021/11/13 06:05:43;;;;;;;50.53;29.13;;;9.50;99.90;;;;;;5112906;28;20035;-71
2021/11/13 06:08:09;;;;;;;40.10;26.83;;;9.50;99.90;;;;;;5113909;28;20042;-71
2021/11/13 06:10:36;;;;;;;39.63;26.80;;;9.50;99.90;;;;;;5113573;28;20035;-71
2021/11/13 06:13:01;;;;;;;42.13;28.10;;;9.50;99.90;;;;;;5113714;28;20067;-71
2021/11/13 06:15:27;;;;;;;41.42;26.88;;;9.50;99.90;;;;;;5099033;28;20483;-71
2021/11/13 06:17:52;;;;;;;40.70;26.30;;;9.60;99.90;;;;;;5117440;28;20043;-71
2021/11/13 06:20:18;;;;;;;47.72;30.95;;;9.60;99.90;;;;;;5117370;28;20079;-71
2021/11/13 06:22:44;;;;;;;37.88;27.00;;;9.60;99.90;;;;;;5117428;28;20031;-69
2021/11/13 06:25:11;;;;;;;51.78;31.17;;;9.60;99.90;;;;;;5116557;28;20036;-69
2021/11/13 06:27:38;;;;;;;42.80;27.38;;;9.60;99.90;;;;;;5117377;28;20036;-70
2021/11/13 06:30:06;;;;;;;47.90;28.45;;;9.60;99.90;;;;;;5115950;28;20083;-71
2021/11/13 06:32:32;;;;;;;36.63;25.48;;;9.60;99.90;;;;;;5117050;28;20046;-71
2021/11/13 06:34:59;;;;;;;36.95;24.83;;;9.60;99.90;;;;;;5117201;28;20118;-71
2021/11/13 06:37:26;;;;;;;37.10;25.10;;;9.60;99.90;;;;;;5117057;28;20038;-71
2021/11/13 06:39:52;;;;;;;40.83;25.50;;;9.70;99.90;;;;;;5116608;27;20487;-71
2021/11/13 06:42:17;;;;;;;34.58;23.50;;;9.70;99.90;;;;;;5117050;28;20039;-71
2021/11/13 06:44:43;;;;;;;42.22;26.25;;;9.70;99.90;;;;;;5115877;28;20043;-71
2021/11/13 06:47:09;;;;;;;40.38;26.77;;;9.70;99.90;;;;;;5117297;28;20088;-71
2021/11/13 06:49:35;;;;;;;36.35;25.88;;;9.70;99.90;;;;;;5116543;28;20114;-69
2021/11/13 06:52:01;;;;;;;38.70;25.25;;;9.70;99.90;;;;;;5116805;28;20047;-70
2021/11/13 06:54:26;;;;;;;40.75;27.67;;;9.70;99.90;;;;;;5116775;28;20040;-71
2021/11/13 06:56:52;;;;;;;37.92;25.73;;;9.70;99.90;;;;;;5116963;28;20050;-71
2021/11/13 06:59:20;;;;;;;33.97;23.88;;;9.70;99.90;;;;;;5116694;28;20464;-71
2021/11/13 07:01:45;;;;;;;38.50;26.70;;;9.70;99.90;;;;;;5116676;28;20036;-71
2021/11/13 07:04:11;;;;;;;37.45;24.80;;;9.80;99.90;;;;;;5115583;28;20061;-71
2021/11/13 07:06:37;;;;;;;40.28;27.10;;;9.70;99.90;;;;;;5115552;28;20044;-71
2021/11/13 07:09:03;;;;;;;35.05;23.40;;;9.70;99.90;;;;;;5116095;28;20495;-71
2021/11/13 07:11:29;;;;;;;38.28;26.13;;;9.70;99.90;;;;;;5116953;28;20036;-71
2021/11/13 07:13:55;;;;;;;43.22;27.02;;;9.70;99.90;;;;;;5116429;28;20040;-71
2021/11/13 07:16:21;;;;;;;36.83;25.77;;;9.70;99.90;;;;;;5116464;28;20031;-71
2021/11/13 07:18:46;;;;;;;39.40;26.52;;;9.70;99.90;;;;;;5114586;28;20084;-70
2021/11/13 07:21:12;;;;;;;51.58;29.80;;;9.70;99.90;;;;;;5116273;28;20039;-71
2021/11/13 07:23:38;;;;;;;37.65;25.25;;;9.70;99.90;;;;;;5115143;28;20407;-71
2021/11/13 07:26:06;;;;;;;42.85;27.05;;;9.70;99.90;;;;;;5115075;28;20027;-71
2021/11/13 07:28:40;;;;;;;44.97;27.77;;;9.80;99.90;;;;;;5115954;28;20043;-71
2021/11/13 07:31:12;;;;;;;43.35;27.25;;;9.70;99.90;;;;;;5115037;28;20396;-71
2021/11/13 07:33:38;;;;;;;46.08;26.90;;;9.80;99.90;;;;;;5114885;28;20040;-71
2021/11/13 07:36:05;;;;;;;45.42;28.30;;;9.80;99.90;;;;;;5115163;28;20075;-71
2021/11/13 07:38:30;;;;;;;39.42;25.58;;;9.80;99.90;;;;;;5115937;28;20430;-71
2021/11/13 07:40:56;;;;;;;40.28;26.17;;;9.80;99.90;;;;;;5116480;28;20539;-72
2021/11/13 07:43:22;;;;;;;40.78;26.60;;;9.80;99.90;;;;;;5115069;28;20032;-71
2021/11/13 07:45:48;;;;;;;35.40;24.17;;;9.80;99.90;;;;;;5115209;28;20067;-70
2021/11/13 07:48:13;;;;;;;43.05;27.10;;;9.80;99.90;;;;;;5116173;28;20484;-70
2021/11/13 07:50:41;;;;;;;35.47;24.42;;;9.80;99.90;;;;;;5115276;28;20551;-70
2021/11/13 07:53:07;;;;;;;36.30;25.50;;;9.80;99.90;;;;;;5115570;28;20357;-70
2021/11/13 07:55:33;;;;;;;36.00;24.70;;;9.80;99.90;;;;;;5115690;28;20116;-70
2021/11/13 07:57:59;;;;;;;44.10;27.00;;;9.80;99.90;;;;;;5115346;28;20088;-69
2021/11/13 08:00:26;;;;;;;49.28;28.73;;;9.80;99.90;;;;;;5113557;28;20045;-70
2021/11/13 08:02:53;;;;;;;37.38;25.25;;;9.90;99.90;;;;;;5115250;27;20031;-70
2021/11/13 08:05:18;;;;;;;41.53;27.35;;;9.90;99.90;;;;;;5115346;27;20078;-70
2021/11/13 08:07:45;;;;;;;37.28;24.70;;;9.90;99.90;;;;;;5115362;27;20067;-70
2021/11/13 08:10:12;;;;;;;35.20;24.98;;;9.90;99.90;;;;;;5115069;28;20035;-70
2021/11/13 08:12:39;;;;;;;35.25;23.92;;;9.90;99.90;;;;;;5115160;28;20399;-70
2021/11/13 08:15:06;;;;;;;37.22;24.02;;;9.90;99.90;;;;;;5114276;28;20052;-69
2021/11/13 08:17:32;;;;;;;38.40;25.17;;;10.00;99.90;;;;;;5115064;28;20135;-70
2021/11/13 08:19:57;;;;;;;32.63;22.08;;;10.00;99.90;;;;;;5114632;28;20119;-70
2021/11/13 08:22:23;;;;;;;36.25;25.35;;;9.90;99.90;;;;;;5114946;28;20058;-70
2021/11/13 08:24:49;;;;;;;36.42;24.08;;;10.00;99.90;;;;;;5115248;28;20036;-69
2021/11/13 08:27:15;;;;;;;33.90;24.15;;;10.00;99.90;;;;;;5114198;28;20484;-71
2021/11/13 08:29:40;;;;;;;36.50;24.75;;;10.10;99.90;;;;;;5114614;28;20043;-71
2021/11/13 08:32:06;;;;;;;41.70;26.60;;;10.10;99.90;;;;;;5113457;28;20066;-71
2021/11/13 08:34:33;;;;;;;47.53;26.83;;;10.10;99.90;;;;;;5113380;28;20514;-71
2021/11/13 08:36:59;;;;;;;34.00;22.85;;;10.10;99.90;;;;;;5113778;28;20046;-71
2021/11/13 08:39:25;;;;;;;32.47;23.67;;;10.10;99.90;;;;;;5113383;28;20060;-71
2021/11/13 08:41:51;;;;;;;34.50;23.50;;;10.10;99.90;;;;;;5113721;28;20048;-71
2021/11/13 08:44:17;;;;;;;32.10;23.27;;;10.10;99.90;;;;;;5114903;28;20034;-71
2021/11/13 08:46:43;;;;;;;38.13;24.48;;;10.10;99.90;;;;;;5114820;28;20050;-70
2021/11/13 08:49:09;;;;;;;36.30;23.63;;;10.20;99.90;;;;;;5113794;28;20429;-71
2021/11/13 08:51:34;;;;;;;28.75;21.67;;;10.20;99.90;;;;;;5114607;28;20402;-71
2021/11/13 08:54:00;;;;;;;33.97;23.88;;;10.20;99.90;;;;;;5114573;28;20376;-71
2021/11/13 08:56:30;;;;;;;33.42;24.55;;;10.20;99.90;;;;;;5114401;28;20039;-71
2021/11/13 08:58:58;;;;;;;31.90;22.55;;;10.20;99.90;;;;;;5114131;28;20075;-71
2021/11/13 09:01:27;;;;;;;36.38;24.13;;;10.30;99.90;;;;;;5114287;28;20062;-71
2021/11/13 09:03:55;;;;;;;35.97;24.00;;;10.30;99.90;;;;;;5114257;28;20084;-71
2021/11/13 09:06:23;;;;;;;30.58;21.40;;;10.30;99.90;;;;;;5113338;28;20413;-71
2021/11/13 09:08:51;;;;;;;37.08;24.17;;;10.20;99.90;;;;;;5112870;28;20039;-71
2021/11/13 09:11:20;;;;;;;32.83;22.80;;;10.30;99.90;;;;;;5114057;28;20514;-71
2021/11/13 09:13:48;;;;;;;35.55;24.58;;;10.30;99.90;;;;;;5113039;28;20051;-71
2021/11/13 09:16:15;;;;;;;33.42;22.25;;;10.20;99.90;;;;;;5114011;28;20032;-71
2021/11/13 09:18:42;;;;;;;33.75;23.50;;;10.20;99.90;;;;;;5113624;28;20115;-71
2021/11/13 09:21:08;;;;;;;33.97;23.17;;;10.20;99.90;;;;;;5114526;28;20039;-71
2021/11/13 09:23:36;;;;;;;37.00;25.08;;;10.20;99.90;;;;;;5114284;28;20035;-70
2021/11/13 09:26:02;;;;;;;40.92;25.98;;;10.20;99.90;;;;;;5114368;28;20099;-71
2021/11/13 09:28:28;;;;;;;41.92;27.02;;;10.20;99.90;;;;;;5113771;28;20433;-71
2021/11/13 09:30:54;;;;;;;34.00;24.08;;;10.20;99.90;;;;;;5113919;28;20046;-70
2021/11/13 09:33:20;;;;;;;35.25;24.30;;;10.20;99.90;;;;;;5113963;28;20403;-70
2021/11/13 09:35:46;;;;;;;41.35;26.42;;;10.20;99.90;;;;;;5114106;28;20391;-70
2021/11/13 09:38:17;;;;;;;41.38;24.85;;;10.30;99.90;;;;;;5112637;28;20050;-70
2021/11/13 09:40:43;;;;;;;40.78;25.90;;;10.20;99.90;;;;;;5114389;28;20123;-71
2021/11/13 09:43:09;;;;;;;44.78;27.20;;;10.30;99.90;;;;;;5113591;28;20067;-71
2021/11/13 09:45:35;;;;;;;45.55;28.17;;;10.30;99.90;;;;;;5113004;28;20068;-71
2021/11/13 09:48:03;;;;;;;43.67;27.10;;;10.30;99.90;;;;;;5113446;28;20035;-71
2021/11/13 09:50:32;;;;;;;49.72;29.02;;;10.30;99.90;;;;;;5120311;28;20051;-71
2021/11/13 09:52:57;;;;;;;50.17;29.73;;;10.40;99.90;;;;;;5120381;27;20120;-71
2021/11/13 09:55:25;;;;;;;47.70;28.58;;;10.40;99.90;;;;;;5119315;28;20043;-71
2021/11/13 09:57:51;;;;;;;44.13;27.75;;;10.50;99.90;;;;;;5120441;27;20039;-71
2021/11/13 10:00:23;;;;;;;47.13;29.08;;;10.50;99.90;;;;;;5120293;27;20475;-71
2021/11/13 10:02:50;;;;;;;38.10;25.20;;;10.50;99.90;;;;;;5120649;27;20122;-72
2021/11/13 10:05:16;;;;;;;39.08;24.70;;;10.60;99.90;;;;;;5120705;27;20047;-72
2021/11/13 10:07:43;;;;;;;35.72;23.45;;;10.70;99.90;;;;;;5120864;27;20048;-72
2021/11/13 10:10:12;;;;;;;37.95;25.48;;;10.80;99.90;;;;;;5120069;27;20043;-72
2021/11/13 10:12:41;;;;;;;45.20;28.67;;;10.90;99.90;;;;;;5119008;28;20058;-72
2021/11/13 10:15:34;;;;;;;37.83;24.92;;;10.90;99.90;;;;;;5119201;27;20452;-72
2021/11/13 10:18:15;;;;;;;38.90;25.20;;;10.90;99.90;;;;;;5102022;28;20097;-72
2021/11/13 10:21:06;;;;;;;35.92;24.15;;;11.00;99.90;;;;;;5101464;28;20058;-72
2021/11/13 10:23:33;;;;;;;35.60;22.48;;;11.00;99.90;;;;;;5105776;28;20054;-72
2021/11/13 10:26:10;;;;;;;37.28;24.60;;;11.10;99.90;;;;;;5120177;27;20122;-72
2021/11/13 10:28:49;;;;;;;33.88;22.52;;;11.10;99.90;;;;;;5119887;27;20086;-72
2021/11/13 10:31:20;;;;;;;40.42;24.58;;;11.10;99.90;;;;;;5119121;28;20062;-72
2021/11/13 10:33:47;;;;;;;33.60;24.88;;;11.10;99.90;;;;;;5120755;27;20031;-72
2021/11/13 10:36:14;;;;;;;45.25;26.13;;;11.10;99.90;;;;;;5120363;27;20105;-72
2021/11/13 10:38:43;;;;;;;35.10;22.95;;;11.10;99.90;;;;;;5118600;28;20122;-72
2021/11/13 10:41:11;;;;;;;39.10;24.02;;;11.20;99.90;;;;;;5118751;28;20403;-72
2021/11/13 10:43:41;;;;;;;33.20;22.00;;;11.10;99.90;;;;;;5119762;27;20123;-72
2021/11/13 10:46:08;;;;;;;36.40;24.77;;;11.20;99.90;;;;;;5120311;27;20078;-72
2021/11/13 10:48:50;;;;;;;38.95;23.80;;;11.20;99.90;;;;;;5119586;27;20122;-72
2021/11/13 10:51:26;;;;;;;38.13;24.83;;;11.20;99.90;;;;;;5120048;27;20039;-72
2021/11/13 10:53:52;;;;;;;30.50;22.60;;;11.20;99.90;;;;;;5120468;27;20421;-72
2021/11/13 10:56:21;;;;;;;35.65;23.05;;;11.30;99.90;;;;;;5119885;27;20034;-72
2021/11/13 10:58:58;;;;;;;38.42;24.33;;;11.30;99.90;;;;;;5118221;28;20101;-72
2021/11/13 11:01:23;;;;;;;32.50;22.58;;;11.30;99.90;;;;;;5117054;27;20496;-72
2021/11/13 11:03:53;;;;;;;35.05;23.92;;;11.30;99.90;;;;;;5117174;28;20035;-72
2021/11/13 11:06:38;;;;;;;36.88;22.73;;;11.30;99.90;;;;;;5098984;28;20054;-73
2021/11/13 11:09:17;;;;;;;34.22;22.75;;;11.40;99.90;;;;;;5116419;28;20044;-72
2021/11/13 11:11:44;;;;;;;35.70;23.60;;;11.40;99.90;;;;;;5115477;28;20090;-72
2021/11/13 11:14:13;;;;;;;35.85;22.13;;;11.40;99.90;;;;;;5116879;28;20387;-72
2021/11/13 11:16:41;;;;;;;35.88;23.95;;;11.40;99.90;;;;;;5115402;28;20047;-72
2021/11/13 11:19:11;;;;;;;33.92;21.92;;;11.40;99.90;;;;;;5116011;28;20632;-72
2021/11/13 11:22:00;;;;;;;38.65;25.75;;;11.30;99.90;;;;;;5116392;28;20047;-72
2021/11/13 11:24:49;;;;;;;40.40;26.02;;;11.30;99.90;;;;;;5115188;28;20082;-71
2021/11/13 11:27:20;;;;;;;38.40;24.65;;;11.30;99.90;;;;;;5116179;28;20032;-72
2021/11/13 11:30:12;;;;;;;34.22;24.25;;;11.30;99.90;;;;;;5116193;28;20043;-72
2021/11/13 11:32:52;;;;;;;41.47;24.65;;;11.40;99.90;;;;;;5115484;28;20039;-72
2021/11/13 11:35:24;;;;;;;41.17;25.67;;;11.30;99.90;;;;;;5116002;28;20040;-73
2021/11/13 11:37:56;;;;;;;38.45;24.80;;;11.40;99.90;;;;;;5116028;28;20458;-72
2021/11/13 11:40:32;;;;;;;35.88;24.20;;;11.40;99.90;;;;;;5115819;28;20442;-72
2021/11/13 11:42:59;;;;;;;35.40;25.00;;;11.50;99.90;;;;;;5115984;28;20103;-72
2021/11/13 11:45:31;;;;;;;35.55;23.67;;;11.50;99.90;;;;;;5097712;28;20073;-73
2021/11/13 11:48:17;;;;;;;37.17;22.52;;;11.50;99.90;;;;;;5115794;28;20040;-72
2021/11/13 11:50:48;;;;;;;40.25;25.02;;;11.60;99.90;;;;;;5114075;28;20048;-72
2021/11/13 11:53:17;;;;;;;35.53;22.98;;;11.50;99.90;;;;;;5115939;28;20479;-72
2021/11/13 11:55:46;;;;;;;32.33;22.73;;;11.50;99.90;;;;;;5116151;28;20028;-71
2021/11/13 11:58:15;;;;;;;35.05;22.92;;;11.60;99.90;;;;;;5115616;28;20096;-71
2021/11/13 12:00:44;;;;;;;35.75;23.60;;;11.60;99.90;;;;;;5113883;28;20420;-71
2021/11/13 12:03:21;;;;;;;41.47;23.90;;;11.60;99.90;;;;;;5101115;27;20089;-71
2021/11/13 12:05:50;;;;;;;33.10;22.77;;;11.60;99.90;;;;;;5095423;28;20043;-71
2021/11/13 12:08:18;;;;;;;36.55;24.77;;;11.70;99.90;;;;;;5094961;28;20499;-71
2021/11/13 12:10:44;;;;;;;32.85;22.42;;;11.70;99.90;;;;;;5093715;28;20372;-71
2021/11/13 12:13:15;;;;;;;35.40;23.88;;;11.70;99.90;;;;;;5094414;28;20032;-72
2021/11/13 12:16:01;;;;;;;33.75;22.55;;;11.70;99.90;;;;;;5094936;28;20093;-71
2021/11/13 12:18:32;;;;;;;37.45;22.27;;;11.70;99.90;;;;;;5093482;28;20055;-71
2021/11/13 12:21:01;;;;;;;34.55;22.65;;;11.70;99.90;;;;;;5095305;28;20087;-70
2021/11/13 12:23:31;;;;;;;30.60;21.83;;;11.70;99.90;;;;;;5094707;28;20521;-71
2021/11/13 12:26:02;;;;;;;32.90;22.90;;;11.80;99.90;;;;;;5094049;28;20487;-71
2021/11/13 12:28:30;;;;;;;33.78;22.65;;;11.80;99.90;;;;;;5093288;28;20068;-71
2021/11/13 12:31:05;;;;;;;33.53;22.83;;;11.80;99.90;;;;;;5094392;28;20561;-71
2021/11/13 12:33:33;;;;;;;33.17;22.58;;;11.90;99.90;;;;;;5093642;28;20506;-71
2021/11/13 12:36:16;;;;;;;32.33;21.42;;;11.90;99.90;;;;;;5093790;28;20066;-71
2021/11/13 12:38:57;;;;;;;30.80;20.88;;;11.90;99.90;;;;;;5093005;28;20046;-71